Time;durP1;ratioP1;P1;durP2;ratioP2;P2;SDS_P1;SDS_P2;PMS_P1;PMS_P2;Temp;Humidity;BMP_temperature;BMP_pressure;BME280_temperature;BME280_humidity;BME280_pressure;Samples;Min_cycle;Max_cycle;Signal;HPM_P1;HPM_P2
2023/10/07 00:01:11;;;;;;;15.52;3.83;;;17.30;99.90;;;;;;5072253;28;20047;-80
2023/10/07 00:03:38;;;;;;;16.92;3.60;;;17.30;99.90;;;;;;5050683;28;20128;-81
2023/10/07 00:06:09;;;;;;;18.25;4.07;;;17.40;99.90;;;;;;5046640;28;20036;-81
2023/10/07 00:08:35;;;;;;;14.90;3.85;;;17.40;99.90;;;;;;5072508;28;20066;-81
2023/10/07 00:11:02;;;;;;;16.38;4.40;;;17.40;99.90;;;;;;5072011;28;20040;-81
2023/10/07 00:13:30;;;;;;;15.00;3.80;;;17.30;99.90;;;;;;5052606;28;20041;-81
2023/10/07 00:15:56;;;;;;;15.15;4.15;;;17.30;99.90;;;;;;5053783;28;20045;-82
2023/10/07 00:18:24;;;;;;;15.25;3.85;;;17.30;99.90;;;;;;5067693;28;20516;-81
2023/10/07 00:20:55;;;;;;;14.98;3.58;;;17.30;99.90;;;;;;5078646;28;20124;-81
2023/10/07 00:23:26;;;;;;;12.65;3.67;;;17.30;99.90;;;;;;5036151;28;20124;-80
2023/10/07 00:25:53;;;;;;;17.25;3.75;;;17.30;99.90;;;;;;5068718;28;20041;-80
2023/10/07 00:28:35;;;;;;;14.50;3.33;;;17.30;99.90;;;;;;5051912;28;20430;-81
2023/10/07 00:31:05;;;;;;;;;;;17.30;99.90;;;;;;5069661;28;20046;-81
2023/10/07 00:33:57;;;;;;;18.25;3.97;;;17.30;99.90;;;;;;5056036;28;19916;-81
2023/10/07 00:36:41;;;;;;;15.80;3.97;;;17.30;99.90;;;;;;5071179;28;20086;-81
2023/10/07 00:39:08;;;;;;;14.95;3.65;;;17.30;99.90;;;;;;5053997;28;20076;-81
2023/10/07 00:41:45;;;;;;;16.83;3.95;;;17.30;99.90;;;;;;5072353;28;20041;-80
2023/10/07 00:44:22;;;;;;;17.20;3.60;;;17.30;99.90;;;;;;5054897;28;20044;-81
2023/10/07 00:49:29;;;;;;;18.63;4.67;;;17.30;99.90;;;;;;5069790;28;20044;-80
2023/10/07 00:51:57;;;;;;;15.38;4.00;;;17.40;99.90;;;;;;5054585;28;20052;-80
2023/10/07 00:54:44;;;;;;;13.98;3.35;;;17.40;99.90;;;;;;5055383;28;20043;-80
2023/10/07 00:57:23;;;;;;;12.77;3.63;;;17.30;99.90;;;;;;5068626;28;20450;-80
2023/10/07 00:59:51;;;;;;;18.63;4.57;;;17.30;99.90;;;;;;5072324;28;20044;-81
2023/10/07 01:02:28;;;;;;;20.75;4.70;;;17.20;99.90;;;;;;5053564;28;20412;-80
2023/10/07 01:04:58;;;;;;;18.33;4.28;;;17.30;99.90;;;;;;5065396;28;20097;-80
2023/10/07 01:07:25;;;;;;;12.27;3.60;;;17.20;99.90;;;;;;5070386;28;20049;-81
2023/10/07 01:10:05;;;;;;;15.60;3.60;;;17.20;99.90;;;;;;5071822;28;20040;-80
2023/10/07 01:12:36;;;;;;;15.80;4.00;;;17.20;99.90;;;;;;5051133;28;20089;-80
2023/10/07 01:15:04;;;;;;;14.80;4.30;;;17.20;99.90;;;;;;5051001;28;20029;-80
2023/10/07 01:17:31;;;;;;;12.63;3.65;;;17.20;99.90;;;;;;5062352;28;20033;-80
2023/10/07 01:19:57;;;;;;;16.13;4.28;;;17.20;99.90;;;;;;5088194;28;20075;-80
2023/10/07 01:22:35;;;;;;;13.98;4.32;;;17.20;99.90;;;;;;5065900;28;20508;-80
2023/10/07 01:25:06;;;;;;;17.60;4.50;;;17.20;99.90;;;;;;5035273;28;20087;-80
2023/10/07 01:27:35;;;;;;;16.05;4.57;;;17.10;99.90;;;;;;5062432;28;20037;-81
2023/10/07 01:30:13;;;;;;;14.38;3.63;;;17.10;99.90;;;;;;5051623;28;20043;-80
2023/10/07 01:32:48;;;;;;;17.65;3.78;;;17.10;99.90;;;;;;5056425;28;20036;-81
2023/10/07 01:35:25;;;;;;;14.15;4.18;;;17.10;99.90;;;;;;5054342;28;20043;-80
2023/10/07 01:37:59;;;;;;;14.63;4.38;;;17.10;99.90;;;;;;5053603;28;20036;-80
2023/10/07 01:40:41;;;;;;;16.77;4.55;;;17.10;99.90;;;;;;5071686;28;20111;-81
2023/10/07 01:43:07;;;;;;;;;;;17.10;99.90;;;;;;5068062;28;20083;-81
2023/10/07 01:45:39;;;;;;;19.98;4.45;;;17.10;99.90;;;;;;5070637;28;19999;-81
2023/10/07 01:48:07;;;;;;;13.25;4.15;;;17.10;99.90;;;;;;5053276;28;20401;-81
2023/10/07 01:50:44;;;;;;;17.90;4.50;;;17.00;99.90;;;;;;5069672;28;20041;-81
2023/10/07 01:53:11;;;;;;;17.42;4.40;;;17.10;99.90;;;;;;5054941;28;20507;-81
2023/10/07 01:55:43;;;;;;;11.93;3.70;;;17.00;99.90;;;;;;5067994;28;20076;-81
2023/10/07 01:58:13;;;;;;;17.30;4.40;;;17.00;99.90;;;;;;5070400;28;20044;-81
2023/10/07 02:00:44;;;;;;;17.00;4.03;;;17.00;99.90;;;;;;5053724;28;20040;-80
2023/10/07 02:03:13;;;;;;;13.10;3.92;;;17.00;99.90;;;;;;5054995;28;20041;-81
2023/10/07 02:05:40;;;;;;;15.93;3.80;;;17.20;99.90;;;;;;5053492;28;20055;-80
2023/10/07 02:08:12;;;;;;;16.20;4.53;;;17.20;99.90;;;;;;5068468;28;20044;-80
2023/10/07 02:10:41;;;;;;;15.27;3.90;;;17.10;99.90;;;;;;5048305;28;20108;-81
2023/10/07 02:13:14;;;;;;;13.75;3.63;;;17.10;99.90;;;;;;5051590;28;20087;-81
2023/10/07 02:15:43;;;;;;;15.68;3.63;;;17.20;99.90;;;;;;5053724;28;20123;-81
2023/10/07 02:18:15;;;;;;;13.15;3.78;;;17.20;99.90;;;;;;5053469;28;20036;-81
2023/10/07 02:20:43;;;;;;;;;;;17.20;99.90;;;;;;5051975;28;20048;-81
2023/10/07 02:23:12;;;;;;;10.00;3.03;;;17.20;99.90;;;;;;5056497;28;19982;-81
2023/10/07 02:25:41;;;;;;;13.52;3.67;;;17.20;99.90;;;;;;5063420;28;20037;-80
2023/10/07 02:28:08;;;;;;;15.15;3.35;;;17.20;99.90;;;;;;5051387;28;20050;-80
2023/10/07 02:31:00;;;;;;;12.27;3.55;;;17.20;99.90;;;;;;5055656;28;20380;-81
2023/10/07 02:33:26;;;;;;;17.17;3.90;;;17.20;99.90;;;;;;5058208;28;20044;-80
2023/10/07 02:35:55;;;;;;;13.98;3.67;;;17.20;99.90;;;;;;5056537;28;20075;-80
2023/10/07 02:38:28;;;;;;;13.45;3.70;;;17.20;99.90;;;;;;5057012;28;20391;-81
2023/10/07 02:40:58;;;;;;;10.35;3.63;;;17.20;99.90;;;;;;5054441;28;20044;-80
2023/10/07 02:43:24;;;;;;;15.80;3.70;;;17.30;99.90;;;;;;5072512;28;20047;-80
2023/10/07 02:45:50;;;;;;;14.55;3.67;;;17.20;99.90;;;;;;5037661;28;20048;-80
2023/10/07 02:48:19;;;;;;;12.18;3.83;;;17.30;99.90;;;;;;5052293;28;20040;-80
2023/10/07 02:50:44;;;;;;;12.55;3.95;;;17.20;99.90;;;;;;5057089;28;20032;-80
2023/10/07 02:53:14;;;;;;;13.75;3.88;;;17.30;99.90;;;;;;5072195;28;20081;-80
2023/10/07 02:55:58;;;;;;;16.23;3.58;;;17.30;99.90;;;;;;5074274;28;20052;-80
2023/10/07 02:58:32;;;;;;;17.65;3.78;;;17.30;99.90;;;;;;5060466;28;20075;-81
2023/10/07 03:01:10;;;;;;;12.90;3.65;;;17.20;99.90;;;;;;5071304;28;20048;-81
2023/10/07 03:03:38;;;;;;;11.27;3.22;;;17.40;99.90;;;;;;5068510;28;20040;-80
2023/10/07 03:06:07;;;;;;;19.27;3.70;;;17.30;99.90;;;;;;5054909;28;20119;-80
2023/10/07 03:11:20;;;;;;;14.55;3.58;;;17.30;99.90;;;;;;5074385;28;20055;-81
2023/10/07 03:13:46;;;;;;;13.13;3.97;;;17.30;99.90;;;;;;5071984;28;20032;-81
2023/10/07 03:21:36;;;;;;;13.60;3.25;;;17.30;99.90;;;;;;5072438;28;20440;-81
2023/10/07 03:24:07;;;;;;;15.10;3.65;;;17.20;99.90;;;;;;5072165;28;20048;-80
2023/10/07 03:26:34;;;;;;;10.98;3.40;;;17.40;99.90;;;;;;5072533;28;20044;-81
2023/10/07 03:29:04;;;;;;;11.95;3.75;;;17.40;99.90;;;;;;5073819;28;20120;-81
2023/10/07 03:31:52;;;;;;;10.35;3.42;;;17.30;99.90;;;;;;5069169;28;20047;-81
2023/10/07 03:34:15;;;;;;;10.00;3.13;;;17.40;99.90;;;;;;5072576;28;20047;-81
2023/10/07 03:36:44;;;;;;;14.25;2.97;;;17.40;99.90;;;;;;5056079;28;20033;-81
2023/10/07 03:41:47;;;;;;;16.00;3.60;;;17.40;99.90;;;;;;5072587;28;20044;-80
2023/10/07 03:44:17;;;;;;;;;;;17.40;99.90;;;;;;5056614;28;20056;-80
2023/10/07 03:46:44;;;;;;;12.18;3.05;;;17.40;99.90;;;;;;5067479;28;20054;-80
2023/10/07 03:49:11;;;;;;;10.20;3.47;;;17.40;99.90;;;;;;5072639;28;20400;-80
2023/10/07 03:51:36;;;;;;;10.60;3.30;;;17.40;99.90;;;;;;5071377;28;20076;-81
2023/10/07 03:54:24;;;;;;;13.70;3.20;;;17.40;99.90;;;;;;5054595;28;20086;-81
2023/10/07 03:56:49;;;;;;;13.13;3.33;;;17.40;99.90;;;;;;5074253;28;20072;-81
2023/10/07 03:59:15;;;;;;;13.95;3.70;;;17.40;99.90;;;;;;5053301;28;20127;-80
2023/10/07 04:01:44;;;;;;;12.80;3.35;;;17.40;99.90;;;;;;5045225;28;20060;-80
2023/10/07 04:04:12;;;;;;;14.68;3.40;;;17.50;99.90;;;;;;5072070;28;20124;-81
2023/10/07 04:06:38;;;;;;;12.20;3.05;;;17.40;99.90;;;;;;5069775;28;20040;-81
2023/10/07 04:09:07;;;;;;;12.23;3.03;;;17.40;99.90;;;;;;5087637;28;20033;-81
2023/10/07 04:11:37;;;;;;;13.05;3.67;;;17.40;99.90;;;;;;5073126;28;20123;-80
2023/10/07 04:14:19;;;;;;;15.45;3.50;;;17.40;99.90;;;;;;5070738;28;20032;-81
2023/10/07 04:16:47;;;;;;;12.63;3.45;;;17.40;99.90;;;;;;5054270;28;20392;-80
2023/10/07 04:21:42;;;;;;;11.60;3.70;;;17.40;99.90;;;;;;5052981;28;20349;-81
2023/10/07 04:24:11;;;;;;;11.40;3.10;;;17.40;99.90;;;;;;5072960;28;20481;-81
2023/10/07 04:26:39;;;;;;;9.80;2.90;;;17.40;99.90;;;;;;5056335;28;20044;-81
2023/10/07 04:29:14;;;;;;;12.48;3.67;;;17.40;99.90;;;;;;5052934;28;20182;-81
2023/10/07 04:31:45;;;;;;;12.65;3.70;;;17.40;99.90;;;;;;5072502;28;20113;-81
2023/10/07 04:34:23;;;;;;;14.90;3.13;;;17.40;99.90;;;;;;5069476;28;20024;-81
2023/10/07 04:39:38;;;;;;;17.38;3.22;;;17.40;99.90;;;;;;5070316;28;20105;-80
2023/10/07 04:42:13;;;;;;;11.50;3.15;;;17.40;99.90;;;;;;5055988;28;20051;-81
2023/10/07 04:50:15;;;;;;;13.20;3.22;;;17.40;99.90;;;;;;5069544;28;20488;-81
2023/10/07 04:52:50;;;;;;;12.95;3.30;;;17.40;99.90;;;;;;5072481;28;20072;-81
2023/10/07 04:55:19;;;;;;;13.80;3.05;;;17.40;99.90;;;;;;5079203;28;20123;-80
2023/10/07 05:00:34;;;;;;;10.35;3.42;;;17.40;99.90;;;;;;5069328;28;20040;-81
2023/10/07 05:03:14;;;;;;;12.88;3.17;;;17.40;99.90;;;;;;5072362;28;20040;-81
2023/10/07 05:05:43;;;;;;;15.07;3.67;;;17.40;99.90;;;;;;5069281;28;20071;-80
2023/10/07 05:08:16;;;;;;;14.85;3.70;;;17.50;99.90;;;;;;5055238;28;20198;-80
2023/10/07 05:10:43;;;;;;;13.93;3.63;;;17.40;99.90;;;;;;5068472;28;20039;-80
2023/10/07 05:13:10;;;;;;;11.98;3.75;;;17.40;99.90;;;;;;5071916;28;20484;-80
2023/10/07 05:15:38;;;;;;;13.68;3.33;;;17.40;99.90;;;;;;5086909;28;20039;-80
2023/10/07 05:18:16;;;;;;;12.02;3.75;;;17.40;99.90;;;;;;5072000;28;20123;-80
2023/10/07 05:20:43;;;;;;;12.18;3.15;;;17.40;99.90;;;;;;5086098;28;20051;-80
2023/10/07 05:23:13;;;;;;;12.70;3.30;;;17.40;99.90;;;;;;5071745;28;20040;-80
2023/10/07 05:25:48;;;;;;;11.63;3.05;;;17.40;99.90;;;;;;5086617;28;20047;-80
2023/10/07 05:28:17;;;;;;;12.07;2.92;;;17.40;99.90;;;;;;5071893;28;20405;-80
2023/10/07 05:30:53;;;;;;;10.93;3.05;;;17.40;99.90;;;;;;5053842;28;20033;-80
2023/10/07 05:33:27;;;;;;;10.00;3.55;;;17.40;99.90;;;;;;5053059;28;20044;-80
2023/10/07 05:36:14;;;;;;;11.02;2.88;;;17.50;99.90;;;;;;5053605;28;20051;-80
2023/10/07 05:38:50;;;;;;;14.35;3.38;;;17.50;99.90;;;;;;5075384;28;20052;-80
2023/10/07 05:41:16;;;;;;;13.32;3.13;;;17.40;99.90;;;;;;5071786;28;20044;-80
2023/10/07 05:43:43;;;;;;;14.35;3.03;;;17.40;99.90;;;;;;5070658;28;20032;-80
2023/10/07 05:46:13;;;;;;;14.68;3.63;;;17.60;99.90;;;;;;5054597;28;20171;-80
2023/10/07 05:48:42;;;;;;;11.05;3.10;;;17.50;99.90;;;;;;5047136;28;20120;-80
2023/10/07 05:51:11;;;;;;;12.93;3.47;;;17.50;99.90;;;;;;5069953;28;20492;-80
2023/10/07 05:53:42;;;;;;;11.02;3.00;;;17.50;99.90;;;;;;5070633;28;20401;-80
2023/10/07 05:56:08;;;;;;;10.07;2.90;;;17.50;99.90;;;;;;5070370;28;20060;-80
2023/10/07 05:58:38;;;;;;;11.48;3.20;;;17.60;99.90;;;;;;5053741;28;20044;-80
2023/10/07 06:01:04;;;;;;;12.23;3.30;;;17.60;99.90;;;;;;5054767;28;20075;-80
2023/10/07 06:03:30;;;;;;;12.63;3.17;;;17.50;99.90;;;;;;5052901;28;20048;-80
2023/10/07 06:05:59;;;;;;;12.30;3.05;;;17.50;99.90;;;;;;5056530;28;20036;-80
2023/10/07 06:08:28;;;;;;;13.75;3.08;;;17.50;99.90;;;;;;5074176;28;20055;-81
2023/10/07 06:10:59;;;;;;;12.05;3.08;;;17.50;99.90;;;;;;5064680;28;20124;-80
2023/10/07 06:13:28;;;;;;;11.10;3.38;;;17.40;99.90;;;;;;5072422;28;20365;-81
2023/10/07 06:15:59;;;;;;;14.75;3.38;;;17.50;99.90;;;;;;5060701;28;20037;-80
2023/10/07 06:18:31;;;;;;;13.50;3.03;;;17.50;99.90;;;;;;5055222;28;20033;-80
2023/10/07 06:21:11;;;;;;;;;;;17.40;99.90;;;;;;5055528;28;20119;-81
2023/10/07 06:23:36;;;;;;;10.20;2.55;;;17.40;99.90;;;;;;5061197;28;20001;-81
2023/10/07 06:26:09;;;;;;;11.30;2.92;;;17.40;99.90;;;;;;5056779;28;20496;-81
2023/10/07 06:28:35;;;;;;;9.20;2.70;;;17.40;99.90;;;;;;5058245;28;20036;-81
2023/10/07 06:31:22;;;;;;;12.90;3.20;;;17.50;99.90;;;;;;5075163;28;20063;-81
2023/10/07 06:34:01;;;;;;;10.13;2.95;;;17.50;99.90;;;;;;5057001;28;20028;-81
2023/10/07 06:36:30;;;;;;;11.13;3.28;;;17.40;99.90;;;;;;5075163;28;20404;-81
2023/10/07 06:38:58;;;;;;;10.77;3.03;;;17.40;99.90;;;;;;5058135;28;20037;-81
2023/10/07 06:41:30;;;;;;;14.02;3.30;;;17.40;99.90;;;;;;5058067;28;20048;-81
2023/10/07 06:44:02;;;;;;;10.13;3.33;;;17.40;99.90;;;;;;5073625;28;20041;-81
2023/10/07 06:46:29;;;;;;;13.50;3.50;;;17.40;99.90;;;;;;5058023;28;20045;-81
2023/10/07 06:48:55;;;;;;;14.52;3.42;;;17.40;99.90;;;;;;5074481;28;20072;-81
2023/10/07 06:51:20;;;;;;;12.60;3.92;;;17.40;99.90;;;;;;5057947;28;20033;-81
2023/10/07 06:53:46;;;;;;;14.25;3.65;;;17.40;99.90;;;;;;5056725;28;20123;-81
2023/10/07 06:56:21;;;;;;;14.00;3.80;;;17.40;99.90;;;;;;5057523;28;20134;-82
2023/10/07 06:58:54;;;;;;;16.23;3.40;;;17.50;99.90;;;;;;5074642;28;20443;-81
2023/10/07 07:01:36;;;;;;;13.70;3.35;;;17.40;99.90;;;;;;5057995;28;20522;-81
2023/10/07 07:04:10;;;;;;;13.52;3.58;;;17.50;99.90;;;;;;5074241;28;20040;-81
2023/10/07 07:06:44;;;;;;;14.20;3.45;;;17.50;99.90;;;;;;5054274;28;20626;-81
2023/10/07 07:12:04;;;;;;;14.85;4.47;;;17.40;99.90;;;;;;5054087;28;20083;-81
2023/10/07 07:14:30;;;;;;;13.02;4.00;;;17.50;99.90;;;;;;5037085;28;20044;-81
2023/10/07 07:16:57;;;;;;;15.40;4.07;;;17.50;99.90;;;;;;5072922;28;20098;-81
2023/10/07 07:19:25;;;;;;;12.35;3.75;;;17.50;99.90;;;;;;5074115;28;20044;-81
2023/10/07 07:21:51;;;;;;;14.35;4.00;;;17.60;99.90;;;;;;5057276;28;20158;-81
2023/10/07 07:24:22;;;;;;;10.95;3.33;;;17.60;99.90;;;;;;5074057;28;20097;-81
2023/10/07 07:26:52;;;;;;;11.23;3.03;;;17.60;99.90;;;;;;5056398;28;20405;-81
2023/10/07 07:29:22;;;;;;;12.25;3.03;;;17.70;99.90;;;;;;5057338;28;20413;-81
2023/10/07 07:31:47;;;;;;;13.75;3.92;;;17.70;99.90;;;;;;5073834;28;20043;-81
2023/10/07 07:34:23;;;;;;;13.88;3.70;;;17.70;99.90;;;;;;5073614;28;20400;-81
2023/10/07 07:36:56;;;;;;;10.35;3.20;;;17.70;99.90;;;;;;5056108;28;20040;-81
2023/10/07 07:39:22;;;;;;;13.30;3.67;;;17.70;99.90;;;;;;5072121;28;20044;-82
2023/10/07 07:41:57;;;;;;;13.43;3.42;;;17.70;99.90;;;;;;5054225;28;20028;-82
2023/10/07 07:44:35;;;;;;;11.18;3.20;;;17.80;99.90;;;;;;5056467;28;20408;-81
2023/10/07 07:47:05;;;;;;;12.40;3.58;;;17.80;99.90;;;;;;5071183;28;20044;-81
2023/10/07 07:49:32;;;;;;;13.77;3.72;;;17.80;99.90;;;;;;5056627;28;20043;-81
2023/10/07 07:52:02;;;;;;;11.65;3.72;;;17.90;99.90;;;;;;5073609;28;20054;-81
2023/10/07 07:54:29;;;;;;;18.05;4.18;;;17.90;99.90;;;;;;5070917;28;20047;-80
2023/10/07 07:56:55;;;;;;;10.48;3.72;;;17.80;99.90;;;;;;5052160;28;20451;-80
2023/10/07 07:59:21;;;;;;;12.30;3.53;;;17.80;99.90;;;;;;5055116;28;20135;-80
2023/10/07 08:01:53;;;;;;;14.25;4.07;;;17.90;99.90;;;;;;5056461;28;20058;-83
2023/10/07 08:07:18;;;;;;;14.98;3.42;;;18.00;99.90;;;;;;5071401;28;19920;-82
2023/10/07 08:09:50;;;;;;;14.48;3.40;;;18.00;99.90;;;;;;5060761;28;20044;-82
2023/10/07 08:12:19;;;;;;;;;;;18.00;99.90;;;;;;5053374;28;20440;-82
2023/10/07 08:14:50;;;;;;;13.25;3.25;;;18.10;99.90;;;;;;5089521;28;19920;-82
2023/10/07 08:17:19;;;;;;;13.10;3.55;;;18.00;99.90;;;;;;5051771;28;20086;-82
2023/10/07 08:19:52;;;;;;;12.07;3.70;;;18.10;99.90;;;;;;5068495;28;20456;-82
2023/10/07 08:22:20;;;;;;;10.45;3.72;;;18.10;99.90;;;;;;5065965;28;20127;-82
2023/10/07 08:24:47;;;;;;;18.00;4.05;;;18.10;99.90;;;;;;5065409;28;20090;-82
2023/10/07 08:30:05;;;;;;;14.20;3.92;;;18.10;99.90;;;;;;5052297;28;20509;-83
2023/10/07 08:32:39;;;;;;;15.38;3.88;;;18.10;99.90;;;;;;5059317;28;20072;-82
2023/10/07 08:35:14;;;;;;;11.77;3.40;;;18.10;99.90;;;;;;5056049;28;20041;-82
2023/10/07 08:37:45;;;;;;;12.38;3.65;;;18.00;99.90;;;;;;5054248;28;20459;-82
2023/10/07 08:40:27;;;;;;;13.90;3.60;;;18.10;99.90;;;;;;5070679;28;20048;-83
2023/10/07 08:43:04;;;;;;;16.52;3.95;;;18.10;99.90;;;;;;5068498;28;20040;-82
2023/10/07 08:45:31;;;;;;;12.57;3.58;;;18.20;99.90;;;;;;5052333;28;20040;-82
2023/10/07 08:48:15;;;;;;;11.75;3.35;;;18.10;99.90;;;;;;5084538;28;20040;-82
2023/10/07 08:50:58;;;;;;;12.35;3.22;;;18.20;99.90;;;;;;5071634;28;20040;-82
2023/10/07 08:53:25;;;;;;;18.27;3.63;;;18.20;99.90;;;;;;5053664;28;20090;-82
2023/10/07 08:55:57;;;;;;;16.23;4.13;;;18.20;99.90;;;;;;5054556;28;20049;-82
2023/10/07 08:58:25;;;;;;;;;;;18.20;99.90;;;;;;5053491;28;20044;-82
2023/10/07 09:00:52;;;;;;;14.80;3.70;;;18.20;99.90;;;;;;5071704;28;19923;-82
2023/10/07 09:03:19;;;;;;;14.18;4.15;;;18.30;99.90;;;;;;5067454;28;20083;-82
2023/10/07 09:05:48;;;;;;;14.30;3.78;;;18.30;99.90;;;;;;5054871;28;20090;-82
2023/10/07 09:08:15;;;;;;;12.60;3.33;;;18.30;99.90;;;;;;5049329;28;20427;-82
2023/10/07 09:10:46;;;;;;;15.40;3.63;;;18.30;99.90;;;;;;5066519;28;20492;-82
2023/10/07 09:13:19;;;;;;;14.10;3.65;;;18.30;99.90;;;;;;5055189;28;20071;-82
2023/10/07 09:15:53;;;;;;;14.85;4.05;;;18.20;99.90;;;;;;5051200;28;20119;-82
2023/10/07 09:18:22;;;;;;;10.35;3.40;;;18.30;99.90;;;;;;5079475;28;20387;-82
2023/10/07 09:20:50;;;;;;;13.05;3.67;;;18.20;99.90;;;;;;5078094;28;20073;-82
2023/10/07 09:23:19;;;;;;;17.85;3.97;;;18.20;99.90;;;;;;5054919;28;20059;-82
2023/10/07 09:25:52;;;;;;;18.13;4.38;;;18.30;99.90;;;;;;5054019;28;20396;-83
2023/10/07 09:28:29;;;;;;;12.55;3.78;;;18.20;99.90;;;;;;5053273;28;20076;-82
2023/10/07 09:30:58;;;;;;;12.48;3.92;;;18.30;99.90;;;;;;5051058;28;20373;-82
2023/10/07 09:33:35;;;;;;;13.27;3.92;;;18.30;99.90;;;;;;5054021;28;20465;-82
2023/10/07 09:38:48;;;;;;;15.57;3.60;;;18.30;99.90;;;;;;5071322;28;20127;-82
2023/10/07 09:43:56;;;;;;;12.93;4.00;;;18.40;99.90;;;;;;5069404;28;20046;-82
2023/10/07 09:46:27;;;;;;;14.32;4.18;;;18.30;99.90;;;;;;5058433;28;20048;-82
2023/10/07 09:48:57;;;;;;;16.45;3.63;;;18.20;99.90;;;;;;5055574;28;20033;-81
2023/10/07 09:51:25;;;;;;;16.70;3.97;;;18.30;99.90;;;;;;5061842;28;20115;-82
2023/10/07 09:53:51;;;;;;;18.05;4.03;;;18.30;99.90;;;;;;5068181;28;20083;-81
2023/10/07 09:56:44;;;;;;;14.88;4.25;;;18.30;99.90;;;;;;5075721;28;20537;-81
2023/10/07 09:59:48;;;;;;;9.18;3.33;;;18.30;99.90;;;;;;5089923;28;20129;-82
2023/10/07 10:02:47;;;;;;;14.57;4.88;;;18.30;99.90;;;;;;5003175;28;20078;-82
2023/10/07 10:05:35;;;;;;;17.20;4.00;;;18.40;99.90;;;;;;5056526;28;20045;-82
2023/10/07 10:08:11;;;;;;;16.70;4.40;;;18.40;99.90;;;;;;5076081;28;20055;-82
2023/10/07 10:10:44;;;;;;;15.77;4.30;;;18.40;99.90;;;;;;5073095;28;20040;-81
2023/10/07 10:14:16;;;;;;;15.20;4.03;;;18.40;99.90;;;;;;5058763;28;20076;-82
2023/10/07 10:16:18;;;;;;;16.08;4.28;;;18.50;99.90;;;;;;5049557;28;20116;-81
2023/10/07 10:18:51;;;;;;;16.20;4.40;;;18.50;99.90;;;;;;5058323;28;20098;-82
2023/10/07 10:21:22;;;;;;;14.18;3.88;;;18.60;99.90;;;;;;5068378;28;20489;-82
2023/10/07 10:23:51;;;;;;;13.67;4.10;;;18.70;99.90;;;;;;5058005;28;20068;-82
2023/10/07 10:26:22;;;;;;;15.70;4.18;;;18.70;99.90;;;;;;5058235;28;20043;-82
2023/10/07 10:29:06;;;;;;;14.53;4.10;;;18.70;99.90;;;;;;5069567;28;20507;-81
2023/10/07 10:31:34;;;;;;;14.50;4.25;;;18.80;99.90;;;;;;5061264;28;20698;-81
2023/10/07 10:34:05;;;;;;;13.55;4.03;;;18.80;99.90;;;;;;5063167;28;20099;-82
2023/10/07 10:36:35;;;;;;;14.70;4.25;;;18.80;99.90;;;;;;5054228;28;20044;-82
2023/10/07 10:39:05;;;;;;;14.43;3.83;;;18.90;99.90;;;;;;5055122;28;20400;-81
2023/10/07 10:41:32;;;;;;;11.63;3.22;;;18.80;99.90;;;;;;5061131;28;20037;-81
2023/10/07 10:44:10;;;;;;;11.77;3.83;;;18.80;99.90;;;;;;5073267;28;20048;-81
2023/10/07 10:46:46;;;;;;;10.00;3.45;;;18.70;99.90;;;;;;5054935;28;20040;-81
2023/10/07 10:49:15;;;;;;;14.50;3.92;;;18.80;99.90;;;;;;5057351;28;20037;-80
2023/10/07 10:51:50;;;;;;;13.98;4.05;;;18.80;99.90;;;;;;5046124;28;20029;-81
2023/10/07 10:54:18;;;;;;;13.50;4.15;;;18.80;99.90;;;;;;5055382;28;20037;-81
2023/10/07 10:56:55;;;;;;;12.63;3.83;;;18.70;99.90;;;;;;5061308;28;20437;-81
2023/10/07 10:59:22;;;;;;;15.43;3.75;;;18.70;99.90;;;;;;5050784;28;20106;-80
2023/10/07 11:01:50;;;;;;;13.07;4.07;;;18.80;99.90;;;;;;5074130;28;20052;-79
2023/10/07 11:04:21;;;;;;;11.68;3.72;;;18.80;99.90;;;;;;5054806;28;20048;-80
2023/10/07 11:06:51;;;;;;;13.82;3.67;;;18.80;99.90;;;;;;5070994;28;20046;-79
2023/10/07 11:09:26;;;;;;;15.15;3.85;;;18.80;99.90;;;;;;5072560;28;20044;-78
2023/10/07 11:11:54;;;;;;;16.83;4.63;;;18.80;99.90;;;;;;5072974;28;20041;-78
2023/10/07 11:14:21;;;;;;;16.45;4.20;;;18.90;99.90;;;;;;5055636;28;20071;-78
2023/10/07 11:16:47;;;;;;;14.77;4.30;;;18.90;99.90;;;;;;5055756;28;20404;-78
2023/10/07 11:19:15;;;;;;;12.88;3.33;;;19.00;99.90;;;;;;5072448;28;20052;-78
2023/10/07 11:21:44;;;;;;;14.35;4.18;;;19.00;99.90;;;;;;5083050;28;20051;-78
2023/10/07 11:24:14;;;;;;;15.05;4.05;;;19.00;99.90;;;;;;5043848;28;20046;-78
2023/10/07 11:26:42;;;;;;;12.02;3.67;;;18.90;99.90;;;;;;5056684;28;20058;-78
2023/10/07 11:29:13;;;;;;;15.00;4.35;;;18.80;99.90;;;;;;5072586;28;20120;-78
2023/10/07 11:31:41;;;;;;;14.02;3.97;;;18.80;99.90;;;;;;5055229;28;20033;-78
2023/10/07 11:34:08;;;;;;;14.73;4.70;;;18.80;99.90;;;;;;5072271;28;20079;-78
2023/10/07 11:36:45;;;;;;;13.48;4.20;;;18.80;99.90;;;;;;5054291;28;20028;-78
2023/10/07 11:39:13;;;;;;;12.80;3.97;;;18.70;99.90;;;;;;5066824;28;20052;-78
2023/10/07 11:41:41;;;;;;;16.27;4.50;;;18.70;99.90;;;;;;5064436;28;20524;-78
2023/10/07 11:44:09;;;;;;;18.35;4.60;;;18.60;99.90;;;;;;5056762;28;20515;-78
2023/10/07 11:46:36;;;;;;;12.30;3.90;;;18.60;99.90;;;;;;5053149;28;20041;-78
2023/10/07 11:49:02;;;;;;;16.58;4.30;;;18.60;99.90;;;;;;5066054;28;20051;-79
2023/10/07 11:51:28;;;;;;;14.93;3.97;;;18.60;99.90;;;;;;5055922;28;20037;-78
2023/10/07 11:53:55;;;;;;;15.30;4.20;;;18.60;99.90;;;;;;5064743;28;20170;-78
2023/10/07 11:56:21;;;;;;;13.88;4.22;;;18.60;99.90;;;;;;5059660;28;20079;-78
2023/10/07 11:58:49;;;;;;;13.63;3.45;;;18.60;99.90;;;;;;5067229;28;20446;-78
2023/10/07 12:01:17;;;;;;;15.52;4.03;;;18.50;99.90;;;;;;5071994;28;20051;-78
2023/10/07 12:03:43;;;;;;;17.52;4.28;;;18.60;99.90;;;;;;5067918;28;20382;-78
2023/10/07 12:06:09;;;;;;;11.73;3.95;;;18.60;99.90;;;;;;5062287;28;20055;-78
2023/10/07 12:08:35;;;;;;;13.85;4.15;;;18.60;99.90;;;;;;5064547;28;20037;-78
2023/10/07 12:11:00;;;;;;;19.65;4.57;;;18.60;99.90;;;;;;5055900;28;20120;-78
2023/10/07 12:13:27;;;;;;;17.02;4.53;;;18.60;99.90;;;;;;5051734;28;20129;-79
2023/10/07 12:15:53;;;;;;;12.00;3.45;;;18.70;99.90;;;;;;5051441;28;20091;-78
2023/10/07 12:18:19;;;;;;;16.83;4.47;;;18.70;99.90;;;;;;5065493;28;20051;-79
2023/10/07 12:20:45;;;;;;;13.07;4.10;;;18.60;99.90;;;;;;5056573;28;20123;-79
2023/10/07 12:23:10;;;;;;;13.55;4.50;;;18.70;99.90;;;;;;5053904;28;20309;-78
2023/10/07 12:25:37;;;;;;;18.23;4.35;;;18.60;99.90;;;;;;5055826;28;20036;-78
2023/10/07 12:28:05;;;;;;;14.07;4.15;;;18.60;99.90;;;;;;5055400;28;20370;-79
2023/10/07 12:30:32;;;;;;;12.30;4.32;;;18.60;99.90;;;;;;5071652;28;20043;-79
2023/10/07 12:32:57;;;;;;;14.13;3.75;;;18.60;99.90;;;;;;5061282;28;20033;-79
2023/10/07 12:35:24;;;;;;;16.20;4.35;;;18.60;99.90;;;;;;5063962;28;20052;-78
2023/10/07 12:37:52;;;;;;;14.80;4.35;;;18.60;99.90;;;;;;5051761;28;20044;-79
2023/10/07 12:40:18;;;;;;;14.35;4.07;;;18.60;99.90;;;;;;5070020;28;20057;-78
2023/10/07 12:42:51;;;;;;;12.98;4.40;;;18.60;99.90;;;;;;5070089;28;20041;-79
2023/10/07 12:45:17;;;;;;;13.90;4.28;;;18.60;99.90;;;;;;5061813;28;20409;-79
2023/10/07 12:47:44;;;;;;;15.00;4.15;;;18.60;99.90;;;;;;5041670;28;20036;-79
2023/10/07 12:52:56;;;;;;;13.30;3.80;;;18.70;99.90;;;;;;5067033;28;20041;-79
2023/10/07 12:55:23;;;;;;;13.82;4.22;;;18.70;99.90;;;;;;5070020;28;20055;-79
2023/10/07 12:57:52;;;;;;;10.48;3.80;;;18.80;99.90;;;;;;5069255;28;20116;-79
2023/10/07 13:00:22;;;;;;;11.02;3.97;;;18.80;99.90;;;;;;5053220;28;20045;-78
2023/10/07 13:02:53;;;;;;;18.25;5.72;;;18.80;99.90;;;;;;5056776;28;20036;-79
2023/10/07 13:05:20;;;;;;;13.30;4.35;;;18.90;99.90;;;;;;5045667;28;20055;-79
2023/10/07 13:07:50;;;;;;;13.63;3.80;;;18.90;99.90;;;;;;5054389;28;20107;-79
2023/10/07 13:10:17;;;;;;;11.13;4.07;;;18.90;99.90;;;;;;5053519;28;20033;-80
2023/10/07 13:12:44;;;;;;;12.93;3.65;;;18.80;99.90;;;;;;5071864;28;20036;-79
2023/10/07 13:15:18;;;;;;;13.85;4.20;;;18.80;99.90;;;;;;5052523;28;20413;-79
2023/10/07 13:17:47;;;;;;;12.27;4.05;;;18.80;99.90;;;;;;5071654;28;20041;-79
2023/10/07 13:20:23;;;;;;;15.57;4.88;;;18.80;99.90;;;;;;5053389;28;20085;-79
2023/10/07 13:22:49;;;;;;;16.38;4.85;;;18.80;99.90;;;;;;5068191;28;20131;-79
2023/10/07 13:25:17;;;;;;;15.23;4.78;;;18.80;99.90;;;;;;5048205;28;20489;-79
2023/10/07 13:27:43;;;;;;;19.27;5.30;;;18.80;99.90;;;;;;5052364;28;20068;-79
2023/10/07 13:30:12;;;;;;;14.38;4.57;;;18.80;99.90;;;;;;5055469;28;20037;-79
2023/10/07 13:32:40;;;;;;;14.70;4.30;;;18.80;99.90;;;;;;5050571;28;20516;-79
2023/10/07 13:35:09;;;;;;;13.65;4.40;;;18.80;99.90;;;;;;5067598;28;20040;-78
2023/10/07 13:37:40;;;;;;;16.05;4.28;;;18.80;99.90;;;;;;5048219;28;20051;-78
2023/10/07 13:40:15;;;;;;;11.80;3.80;;;18.70;99.90;;;;;;5070260;28;20515;-79